Rockland, Delaware
Current Conditions -  °F | °C
As of 4:51 PM on Saturday 25 Oct 2014 (Local Time) from KILG Reporting Station
Clear Clear  
Wind Chill: 69°   Ceiling: Unl
Heat Index: 69°   Visibility: 10mi
Dew Point: 43°   Wind: 13mph
Humidity: 39%   Direction: 250°WSW
Pressure: 29.74"   Gusts: NA
Location:  39.8°N, 75.57°W
Report Text: KILG 252051Z 25011KT 10SM CLR 21/06 A2974 RMK AO2 SLP070 T02060061 56022
Loading
Personal Weather Stations






























Interactive Weather Map
Tropical Storm Tracking
New forecast layout! Learn more

10-Day Weather Forecast

Advertisements
Track Severe Weather on mobile